AirNav   TITAN Aviation Fuels
 
 1579 users online  

52CO Mountain View Ranch Airport
Monument, Colorado, USA

GOING TO MONUMENT?


FAA INFORMATION EFFECTIVE 30 DECEMBER 2021

Location

FAA Identifier: 52CO
Lat/Long: 39-06-34.9600N 104-39-13.9000W
39-06.582667N 104-39.231667W
39.1097111,-104.6538611
(estimated)
Elevation: 7500 ft. / 2286 m (estimated)
Variation: 11E (1995)
From city: 10 miles E of MONUMENT, CO
Time zone: UTC -7 (UTC -6 during Daylight Saving Time)
Zip code: 80908

Airport Operations

Airport use: Private use. Permission required prior to landing
Activation date: 03/2000
Control tower: no
ARTCC: DENVER CENTER
FSS: DENVER FLIGHT SERVICE STATION
Attendance: UNATNDD
Wind indicator: yes
Segmented circle: no

Airport Communications

WX AWOS-3PT at FLY (11 nm S): 118.450 (719-683-5371)
WX ASOS at COS (18 nm S): PHONE 719-380-6748

Nearby radio navigation aids

VOR radial/distance  VOR name  Freq  Var
BRKr347/10.0BLACK FOREST VOR/DME112.5008E
FCSr359/26.2BUTTS VOR/DME108.8012E
FQFr172/34.9FALCON VORTAC116.3011E

 
NDB name  Hdg/Dist  Freq  Var  ID
IRONHORSE002/26.333508EIHS .. .... ...

Airport Services

Runway Information

Runway 17/35

Dimensions: 2200 x 100 ft. / 671 x 30 m
Surface: turf
RUNWAY 17  RUNWAY 35
Traffic pattern: leftleft
Obstructions: 50 ft. pline, marked, 50 ft. from runway50 ft. trees, 2000 ft. from runway

Airport Ownership and Management from official FAA records

Ownership: Privately-owned
Owner: HELEN J. WALLER
9040 WALKER ROAD
COLORADO SPRINGS, CO 80911
Phone 719-495-2662
Manager: STEVEN M. WALLER
P.O. BOX 1029
STERLING, CO 80751
Phone (970) 774-5750
CELL 970-580-1314

Airport Operational Statistics

Aircraft based on the field: 2
Single engine airplanes: 2
    

Additional Remarks

FOR CD CTC COLORADO SPRINGS APCH AT 719-556-9105.

Instrument Procedures

There are no published instrument procedures at 52CO.

Some nearby airports with instrument procedures:

KCOS - City of Colorado Springs Municipal Airport (18 nm S)
KAPA - Centennial Airport (29 nm N)
KBKF - Buckley Space Force Base (36 nm N)
KCFO - Colorado Air and Space Port Airport (41 nm N)
KDEN - Denver International Airport (45 nm N)
 
Loc | Ops | Rwys | IFR | FBO | Links
Com | Nav | Svcs | Stats | Notes

AirBoss

 
Area around 52CO (Mountain View Ranch Airport)
 
Road maps at: MapQuest Bing Google
 
Aerial photo
No photo
 
Sectional chart

 
Airport distance calculator
Flying to Mountain View Ranch Airport? Find the distance to fly.

From to 52CO

Sunrise and sunset
Times for 20-Jan-2022
 Local
(UTC-7)
 Zulu
(UTC)
Morning civil twilight06:4613:46
Sunrise07:1514:15
Sunset17:0400:04
Evening civil twilight17:3300:33

Current date and time
Zulu (UTC)  20-Jan-2022 23:57:37
Local (UTC-7)  20-Jan-2022 16:57:37
 
METAR
KMNH 
6nm N 
202335Z AUTO 21007KT 10SM CLR 00/M10 A3009 RMK AO2
KFLY 
11nm S 
202335Z AUTO 26004KT 3/4SM BR OVC002 M04/M05 A3012 RMK AO2 T10451051
KAFF 
11nm SW 
202258Z AUTO 15009KT 10SM CLR M02/M06 A3009 RMK AO2 SLP246 T10191061
KCOS 
18nm S 
202354Z 05003KT 6SM BR FEW004 FEW150 SCT250 M04/M07 A3012 RMK AO2 SLP262 60000 I6001 T10391072 11028 21061 58008
TAF
KAFF 
11nm SW 
202002Z 2020/2202 16009KT 9999 FEW010 QNH2994INS WND 35009KT AFT 2102 BECMG 2111/2112 01009KT 9999 VCSH BKN050 BKN200 610509 QNH2994INS BECMG 2115/2116 01012G20KT 3200 -SN SCT010 BKN015 OVC050 620159 QNH3001INS WND 330V060 BECMG 2118/2119 01012G20KT 1600 -SN BKN010 OVC020 620109 QNH3008INS WND 330V060 TX02/2021Z TNM11/2113Z LAST NO AMDS AFT 2100 NEXT 2112
KCOS 
18nm S 
202205Z 2022/2118 VRB04KT 3SM BR BKN004 FM202300 VRB05KT P6SM FEW010 FM210200 10005KT P6SM SKC FM211000 36006KT P6SM SCT170 BKN200 FM211600 02012KT P6SM BKN090
NOTAMs
Click for the latest NOTAMs
NOTAMs are issued by the DoD/FAA and will open in a separate window not controlled by AirNav.

 

 
 

Would you like to see your business listed on this page?

 If your business provides an interesting product or service to pilots, flight crews, aircraft, or users of the Mountain View Ranch Airport, you should consider listing it here.  To start the listing process, click on the button below
 
Add a business
 

Other Pages about Mountain View Ranch Airport

Update a link
 
Copyright © AirNav, LLC. All rights reserved. Privacy Policy  Contact